Terminal Aerodrome Forecast
Issued by NWS

Home | Current Version | Previous Version | Text Only | Print | Product List | Glossary On
Versions: 1 2 3 4 5 6 7 8 9 10 11 12 13 14 15
092
FTUS45 KVEF 202339
TAFBIH
TAF
KBIH 202339Z 2100/2124 16017G25KT P6SM -RA SCT020 OVC050
     FM211200 16020G28KT P6SM SCT020 BKN050 OVC080
      TEMPO 2112/2116 -SHRA BKN050
     FM211800 16010KT P6SM FEW020 SCT050 BKN080=

USA.gov is the U.S. government's official web portal to all federal, state and local government web resources and services.